Time;durP1;ratioP1;P1;durP2;ratioP2;P2;SDS_P1;SDS_P2;PMS_P1;PMS_P2;Temp;Humidity;BMP_temperature;BMP_pressure;BME280_temperature;BME280_humidity;BME280_pressure;Samples;Min_cycle;Max_cycle;Signal;HPM_P1;HPM_P2
2022/11/10 00:01:52;;;;;;;8.57;2.08;;;10.40;99.90;;;;;;6245598;23;20016;-83
2022/11/10 00:04:17;;;;;;;12.98;2.17;;;10.40;99.90;;;;;;6245396;23;20096;-82
2022/11/10 00:06:46;;;;;;;10.60;2.25;;;10.40;99.90;;;;;;6245359;23;20027;-82
2022/11/10 00:09:11;;;;;;;9.20;2.17;;;10.40;99.90;;;;;;6245578;23;20019;-82
2022/11/10 00:11:37;;;;;;;11.07;2.28;;;10.40;99.90;;;;;;6215272;23;20016;-82
2022/11/10 00:17:05;;;;;;;10.43;2.30;;;10.40;99.90;;;;;;6218352;23;20020;-82
2022/11/10 00:19:31;;;;;;;;;;;10.40;99.90;;;;;;6218460;23;20027;-82
2022/11/10 00:21:57;;;;;;;7.70;1.70;;;10.30;99.90;;;;;;6217608;23;19923;-82
2022/11/10 00:24:23;;;;;;;10.05;2.03;;;10.30;99.90;;;;;;6245252;23;20439;-82
2022/11/10 00:26:49;;;;;;;8.10;1.95;;;10.30;99.90;;;;;;6245847;23;20527;-82
2022/11/10 00:29:15;;;;;;;6.35;2.03;;;10.30;99.90;;;;;;6218358;23;20043;-83
2022/11/10 00:31:41;;;;;;;8.80;1.92;;;10.30;99.90;;;;;;6218152;23;20016;-82
2022/11/10 00:34:11;;;;;;;14.73;2.60;;;10.30;99.90;;;;;;6218566;23;20020;-82
2022/11/10 00:36:36;;;;;;;14.18;2.58;;;10.30;99.90;;;;;;6218223;23;20095;-83
2022/11/10 00:39:02;;;;;;;8.18;2.30;;;10.30;99.90;;;;;;6244859;23;20055;-82
2022/11/10 00:41:28;;;;;;;12.43;3.20;;;10.30;99.90;;;;;;6218172;23;20444;-82
2022/11/10 00:43:54;;;;;;;20.98;3.58;;;10.30;99.90;;;;;;6218617;23;20018;-82
2022/11/10 00:46:19;;;;;;;12.40;2.65;;;10.30;99.90;;;;;;6218539;23;20016;-82
2022/11/10 00:48:45;;;;;;;11.25;2.95;;;10.30;99.90;;;;;;6217894;23;20391;-82
2022/11/10 00:51:23;;;;;;;14.48;3.33;;;10.30;99.90;;;;;;6218994;23;20366;-82
2022/11/10 00:53:48;;;;;;;9.68;2.30;;;10.30;99.90;;;;;;6245002;23;20421;-82
2022/11/10 00:56:14;;;;;;;12.50;3.10;;;10.30;99.90;;;;;;6217994;23;20048;-82
2022/11/10 00:58:40;;;;;;;11.45;2.70;;;10.20;99.90;;;;;;6245860;23;20012;-82
2022/11/10 01:01:07;;;;;;;12.15;2.30;;;10.20;99.90;;;;;;6244751;23;20012;-82
2022/11/10 01:03:33;;;;;;;8.90;2.35;;;10.20;99.90;;;;;;6218152;23;20016;-81
2022/11/10 01:06:07;;;;;;;9.40;2.72;;;10.20;99.90;;;;;;6245550;23;20095;-82
2022/11/10 01:08:33;;;;;;;11.80;2.92;;;10.20;99.90;;;;;;6217794;23;20016;-82
2022/11/10 01:11:17;;;;;;;16.60;3.33;;;10.20;99.90;;;;;;6244846;23;20038;-82
2022/11/10 01:13:43;;;;;;;9.23;2.08;;;10.10;99.90;;;;;;6244325;23;20030;-82
2022/11/10 01:16:15;;;;;;;13.85;2.72;;;10.10;99.90;;;;;;6245484;23;20016;-82
2022/11/10 01:18:42;;;;;;;14.93;3.47;;;10.10;99.90;;;;;;6245497;23;20019;-82
2022/11/10 01:21:08;;;;;;;15.18;3.05;;;10.10;99.90;;;;;;6245078;23;20020;-82
2022/11/10 01:23:34;;;;;;;13.93;3.17;;;10.10;99.90;;;;;;6245663;23;20058;-82
2022/11/10 01:26:03;;;;;;;13.55;3.30;;;10.10;99.90;;;;;;6217470;23;20068;-82
2022/11/10 01:28:29;;;;;;;11.50;2.88;;;10.10;99.90;;;;;;6244717;23;20014;-81
2022/11/10 01:30:58;;;;;;;12.10;3.08;;;10.10;99.90;;;;;;6217898;23;20047;-82
2022/11/10 01:33:25;;;;;;;12.57;3.17;;;10.00;99.90;;;;;;6218323;23;20012;-82
2022/11/10 01:35:50;;;;;;;16.63;3.50;;;10.00;99.90;;;;;;6243559;23;20016;-82
2022/11/10 01:38:16;;;;;;;9.52;2.78;;;10.00;99.90;;;;;;6245223;23;20019;-82
2022/11/10 01:40:41;;;;;;;12.68;3.35;;;10.00;99.90;;;;;;6218239;23;20115;-82
2022/11/10 01:43:10;;;;;;;8.48;2.60;;;10.00;99.90;;;;;;6246550;23;20523;-82
2022/11/10 01:46:02;;;;;;;10.27;2.55;;;10.00;99.90;;;;;;6219892;23;20095;-82
2022/11/10 01:48:33;;;;;;;11.50;3.17;;;10.00;99.90;;;;;;6220093;23;20020;-82
2022/11/10 01:51:05;;;;;;;12.70;3.20;;;9.90;99.90;;;;;;6219201;23;20038;-82
2022/11/10 01:53:33;;;;;;;11.52;3.08;;;10.00;99.90;;;;;;6219468;23;20452;-82
2022/11/10 01:56:01;;;;;;;11.73;2.88;;;9.90;99.90;;;;;;6219192;23;20031;-82
2022/11/10 01:58:32;;;;;;;10.60;3.17;;;9.90;99.90;;;;;;6247199;23;20071;-82
2022/11/10 02:00:58;;;;;;;11.50;2.90;;;9.90;99.90;;;;;;6219811;23;20016;-82
2022/11/10 02:03:52;;;;;;;11.02;3.40;;;9.90;99.90;;;;;;6219390;23;20012;-82
2022/11/10 02:06:21;;;;;;;14.07;2.83;;;9.90;99.90;;;;;;6246607;23;20016;-82
2022/11/10 02:08:47;;;;;;;12.85;3.63;;;9.90;99.90;;;;;;6246615;23;20015;-82
2022/11/10 02:11:13;;;;;;;15.13;3.70;;;9.80;99.90;;;;;;6246408;23;20012;-82
2022/11/10 02:13:39;;;;;;;13.13;3.60;;;9.90;99.90;;;;;;6219480;23;20016;-82
2022/11/10 02:16:05;;;;;;;13.43;3.20;;;9.80;99.90;;;;;;6219505;23;20527;-82
2022/11/10 02:18:31;;;;;;;16.15;3.50;;;9.80;99.90;;;;;;6218892;23;20016;-82
2022/11/10 02:20:56;;;;;;;11.85;3.20;;;9.80;99.90;;;;;;6246480;23;20027;-82
2022/11/10 02:23:33;;;;;;;12.07;3.00;;;9.80;99.90;;;;;;6220158;23;20016;-82
2022/11/10 02:26:01;;;;;;;13.40;3.53;;;9.80;99.90;;;;;;6218519;23;20020;-82
2022/11/10 02:28:27;;;;;;;10.02;2.83;;;9.80;99.90;;;;;;6219102;23;20027;-82
2022/11/10 02:30:53;;;;;;;13.10;3.85;;;9.80;99.90;;;;;;6246710;23;20024;-82
2022/11/10 02:33:19;;;;;;;14.82;3.50;;;9.80;99.90;;;;;;6246206;23;20023;-82
2022/11/10 02:35:46;;;;;;;13.90;3.22;;;9.80;99.90;;;;;;6219553;23;20012;-82
2022/11/10 02:38:13;;;;;;;17.30;3.65;;;9.80;99.90;;;;;;6246424;23;20018;-82
2022/11/10 02:40:38;;;;;;;10.43;3.33;;;9.80;99.90;;;;;;6246962;23;20012;-82
2022/11/10 02:43:07;;;;;;;17.02;3.60;;;9.90;99.90;;;;;;6218912;23;20016;-82
2022/11/10 02:45:32;;;;;;;10.63;2.67;;;9.80;99.90;;;;;;6245581;23;20505;-82
2022/11/10 02:47:58;;;;;;;10.73;2.90;;;9.80;99.90;;;;;;6218704;23;20012;-82
2022/11/10 02:50:24;;;;;;;14.73;3.38;;;9.80;99.90;;;;;;6246509;23;20082;-82
2022/11/10 02:52:49;;;;;;;11.63;3.30;;;9.80;99.90;;;;;;6218247;23;20027;-82
2022/11/10 02:55:15;;;;;;;15.52;3.30;;;9.80;99.90;;;;;;6219599;23;20027;-82
2022/11/10 02:57:41;;;;;;;14.48;3.05;;;9.80;99.90;;;;;;6246406;23;20019;-82
2022/11/10 03:00:07;;;;;;;15.55;3.10;;;9.80;99.90;;;;;;6218917;23;20095;-82
2022/11/10 03:02:33;;;;;;;12.15;3.30;;;9.80;99.90;;;;;;6246100;23;20030;-82
2022/11/10 03:04:58;;;;;;;13.98;3.20;;;9.80;99.90;;;;;;6219323;23;20503;-82
2022/11/10 03:07:24;;;;;;;11.95;2.90;;;9.80;99.90;;;;;;6245960;23;20440;-82
2022/11/10 03:09:50;;;;;;;11.35;3.15;;;9.80;99.90;;;;;;6218902;23;20077;-82
2022/11/10 03:12:16;;;;;;;12.27;2.88;;;9.80;99.90;;;;;;6219321;23;20455;-82
2022/11/10 03:14:42;;;;;;;9.98;3.03;;;9.90;99.90;;;;;;6245678;23;20324;-82
2022/11/10 03:17:07;;;;;;;15.75;4.30;;;9.80;99.90;;;;;;6219236;23;20016;-82
2022/11/10 03:19:33;;;;;;;11.23;3.65;;;9.80;99.90;;;;;;6246202;23;20020;-82
2022/11/10 03:21:59;;;;;;;9.82;3.17;;;9.80;99.90;;;;;;6217989;23;20074;-82
2022/11/10 03:24:24;;;;;;;13.25;3.10;;;9.80;99.90;;;;;;6246161;23;20054;-82
2022/11/10 03:26:50;;;;;;;11.32;2.85;;;9.80;99.90;;;;;;6245974;23;20081;-82
2022/11/10 03:29:15;;;;;;;11.98;3.55;;;9.80;99.90;;;;;;6218082;23;20012;-82
2022/11/10 03:31:41;;;;;;;16.35;4.18;;;9.80;99.90;;;;;;6218974;23;20103;-82
2022/11/10 03:34:06;;;;;;;15.77;3.88;;;9.80;99.90;;;;;;6246144;23;20463;-82
2022/11/10 03:36:32;;;;;;;22.48;4.43;;;9.80;99.90;;;;;;6245692;23;20072;-82
2022/11/10 03:38:58;;;;;;;16.02;4.00;;;9.80;99.90;;;;;;6218240;23;20019;-81
2022/11/10 03:41:23;;;;;;;16.50;3.88;;;9.80;99.90;;;;;;6218285;23;20020;-82
2022/11/10 03:43:49;;;;;;;14.98;4.05;;;9.80;99.90;;;;;;6218218;23;20031;-82
2022/11/10 03:46:15;;;;;;;16.80;4.40;;;9.80;99.90;;;;;;6246034;23;20016;-82
2022/11/10 03:48:41;;;;;;;12.30;3.50;;;9.80;99.90;;;;;;6244931;23;20456;-82
2022/11/10 03:51:07;;;;;;;10.35;3.30;;;9.80;99.90;;;;;;6218202;23;20016;-82
2022/11/10 03:53:33;;;;;;;14.32;4.35;;;9.80;99.90;;;;;;6246219;23;20016;-83
2022/11/10 03:56:05;;;;;;;14.95;3.17;;;9.80;99.90;;;;;;6217726;23;20020;-82
2022/11/10 03:58:31;;;;;;;15.30;3.95;;;9.80;99.90;;;;;;6217930;23;20028;-82
2022/11/10 04:00:57;;;;;;;18.58;5.30;;;9.80;99.90;;;;;;6219137;23;20030;-82
2022/11/10 04:03:23;;;;;;;10.05;3.33;;;9.80;99.90;;;;;;6245136;23;20024;-82
2022/11/10 04:16:47;;;;;;;18.60;5.05;;;9.70;99.90;;;;;;6244939;23;20016;-83
2022/11/10 04:19:13;;;;;;;16.60;5.15;;;9.70;99.90;;;;;;6218598;23;20036;-83
2022/11/10 04:21:38;;;;;;;19.20;5.10;;;9.80;99.90;;;;;;6218566;23;20024;-83
2022/11/10 04:24:05;;;;;;;15.35;5.63;;;9.80;99.90;;;;;;6245281;23;20147;-83
2022/11/10 04:26:32;;;;;;;14.65;4.60;;;9.80;99.90;;;;;;6218976;23;20107;-83
2022/11/10 04:29:04;;;;;;;24.80;6.43;;;9.80;99.90;;;;;;6218948;23;20019;-83
2022/11/10 04:31:32;;;;;;;16.83;4.65;;;9.80;99.90;;;;;;6245166;23;20026;-83
2022/11/10 04:33:58;;;;;;;15.20;4.40;;;9.80;99.90;;;;;;6244983;23;20344;-83
2022/11/10 04:36:26;;;;;;;14.60;4.20;;;9.80;99.90;;;;;;6218279;23;20016;-83
2022/11/10 04:38:54;;;;;;;14.70;4.53;;;9.80;99.90;;;;;;6244225;23;20008;-83
2022/11/10 04:41:20;;;;;;;14.73;4.07;;;9.80;99.90;;;;;;6244775;23;20024;-82
2022/11/10 04:43:46;;;;;;;19.10;5.00;;;9.80;99.90;;;;;;6243896;23;20092;-82
2022/11/10 04:46:35;;;;;;;19.13;5.05;;;9.80;99.90;;;;;;6217315;23;20377;-83
2022/11/10 04:49:02;;;;;;;20.08;4.90;;;9.80;99.90;;;;;;6217473;23;20020;-82
2022/11/10 04:51:33;;;;;;;14.20;3.97;;;9.80;99.90;;;;;;6218297;23;20024;-83
2022/11/10 04:53:59;;;;;;;13.85;4.53;;;9.80;99.90;;;;;;6244689;23;20020;-83
2022/11/10 04:56:26;;;;;;;19.20;4.65;;;9.80;99.90;;;;;;6244947;23;20368;-83
2022/11/10 04:58:53;;;;;;;21.77;5.25;;;9.80;99.90;;;;;;6217623;23;20014;-83
2022/11/10 05:01:21;;;;;;;13.43;4.10;;;9.80;99.90;;;;;;6218144;23;20506;-83
2022/11/10 05:03:47;;;;;;;15.18;4.22;;;9.80;99.90;;;;;;6218561;23;20017;-83
2022/11/10 05:06:14;;;;;;;16.80;5.00;;;9.80;99.90;;;;;;6217446;23;20012;-82
2022/11/10 05:08:41;;;;;;;21.90;4.55;;;9.80;99.90;;;;;;6223951;23;20020;-96
2022/11/10 05:11:12;;;;;;;15.75;4.95;;;9.80;99.90;;;;;;6267973;22;20042;-96
2022/11/10 05:13:38;;;;;;;12.32;3.85;;;9.80;99.90;;;;;;6272762;22;20003;-96
2022/11/10 05:18:52;;;;;;;17.00;3.95;;;9.80;99.90;;;;;;6250053;22;20035;-85
2022/11/10 05:21:38;;;;;;;17.98;4.32;;;9.80;99.90;;;;;;6249566;22;20024;-84
2022/11/10 05:24:04;;;;;;;17.58;4.07;;;9.80;99.90;;;;;;6249364;22;20138;-85
2022/11/10 05:26:33;;;;;;;14.63;3.88;;;9.80;99.90;;;;;;6278379;22;20369;-85
2022/11/10 05:29:07;;;;;;;16.63;4.18;;;9.90;99.90;;;;;;6250271;22;20016;-84
2022/11/10 05:31:39;;;;;;;17.40;4.30;;;9.80;99.90;;;;;;6245465;22;20016;-83
2022/11/10 05:34:11;;;;;;;22.02;4.68;;;9.80;99.90;;;;;;6248062;22;20514;-83
2022/11/10 05:36:36;;;;;;;20.33;4.40;;;9.80;99.90;;;;;;6249742;22;20056;-83
2022/11/10 05:39:11;;;;;;;18.67;4.68;;;9.80;99.90;;;;;;6276577;22;20134;-82
2022/11/10 05:41:45;;;;;;;18.73;4.38;;;9.90;99.90;;;;;;6249887;22;20016;-83
2022/11/10 05:44:16;;;;;;;20.17;4.95;;;9.90;99.90;;;;;;6250553;22;20019;-85
2022/11/10 05:46:45;;;;;;;17.05;4.60;;;9.80;99.90;;;;;;6250700;22;20348;-84
2022/11/10 05:49:17;;;;;;;21.27;5.47;;;9.90;99.90;;;;;;6249973;22;20016;-84
2022/11/10 05:51:48;;;;;;;19.85;4.72;;;9.90;99.90;;;;;;6248509;22;20023;-84
2022/11/10 05:54:20;;;;;;;18.77;5.35;;;9.90;99.90;;;;;;6276663;22;20019;-84
2022/11/10 05:56:45;;;;;;;18.27;5.03;;;9.80;99.90;;;;;;6277274;22;20379;-84
2022/11/10 05:59:11;;;;;;;18.55;5.40;;;9.90;99.90;;;;;;6277170;22;20012;-84
2022/11/10 06:01:36;;;;;;;20.58;5.25;;;9.90;99.90;;;;;;6250141;22;20217;-84
2022/11/10 06:04:02;;;;;;;19.98;5.10;;;9.80;99.90;;;;;;6249400;22;20234;-84
2022/11/10 06:06:27;;;;;;;20.75;5.88;;;9.90;99.90;;;;;;6276676;22;20031;-84
2022/11/10 06:08:55;;;;;;;20.90;5.65;;;9.90;99.90;;;;;;6249914;22;20107;-85
2022/11/10 06:11:20;;;;;;;24.08;6.40;;;9.90;99.90;;;;;;6249133;22;20019;-84
2022/11/10 06:13:46;;;;;;;18.20;5.18;;;9.90;99.90;;;;;;6277323;22;20424;-84
2022/11/10 06:16:12;;;;;;;19.63;5.40;;;9.90;99.90;;;;;;6249174;22;20039;-83
2022/11/10 06:18:37;;;;;;;20.42;5.68;;;9.90;99.90;;;;;;6249530;22;20042;-83
2022/11/10 06:21:03;;;;;;;15.55;4.47;;;9.90;99.90;;;;;;6249583;22;20028;-84
2022/11/10 06:23:29;;;;;;;26.33;6.50;;;9.90;99.90;;;;;;6276573;22;20012;-84
2022/11/10 06:25:54;;;;;;;21.23;5.72;;;9.90;99.90;;;;;;6277034;22;20012;-83
2022/11/10 06:28:20;;;;;;;23.15;5.90;;;9.90;99.90;;;;;;6249129;22;20024;-83
2022/11/10 06:30:45;;;;;;;25.23;5.78;;;9.90;99.90;;;;;;6276511;22;20085;-84
2022/11/10 06:33:11;;;;;;;21.48;5.95;;;9.90;99.90;;;;;;6250074;22;20030;-83
2022/11/10 06:35:37;;;;;;;19.00;4.75;;;9.90;99.90;;;;;;6277506;22;20023;-84
2022/11/10 06:38:11;;;;;;;21.92;5.45;;;9.90;99.90;;;;;;6249273;22;20083;-84
2022/11/10 06:40:37;;;;;;;24.20;5.93;;;9.90;99.90;;;;;;6250147;22;20475;-84
2022/11/10 06:43:03;;;;;;;20.50;5.13;;;9.80;99.90;;;;;;6275940;22;20019;-84
2022/11/10 06:45:29;;;;;;;19.58;5.78;;;9.90;99.90;;;;;;6249469;22;20049;-85
2022/11/10 06:48:03;;;;;;;25.05;5.90;;;9.90;99.90;;;;;;6249700;22;20015;-84
2022/11/10 06:50:28;;;;;;;24.60;6.13;;;9.90;99.90;;;;;;6277506;22;20043;-84
2022/11/10 06:52:58;;;;;;;26.92;5.97;;;9.90;99.90;;;;;;6248725;22;20312;-85
2022/11/10 06:55:24;;;;;;;20.15;5.65;;;9.90;99.90;;;;;;6276896;22;20336;-84
2022/11/10 06:57:50;;;;;;;21.02;5.38;;;9.90;99.90;;;;;;6249665;22;20065;-84
2022/11/10 07:00:16;;;;;;;23.83;5.72;;;9.90;99.90;;;;;;6249059;22;20419;-84
2022/11/10 07:02:42;;;;;;;14.65;4.85;;;9.90;99.90;;;;;;6249499;22;20043;-83
2022/11/10 07:05:07;;;;;;;21.77;5.78;;;9.90;99.90;;;;;;6249753;22;20031;-82
2022/11/10 07:07:33;;;;;;;25.85;6.20;;;9.90;99.90;;;;;;6275713;22;20018;-82
2022/11/10 07:09:59;;;;;;;24.20;6.00;;;9.90;99.90;;;;;;6249489;22;20090;-83
2022/11/10 07:12:24;;;;;;;16.83;4.90;;;9.90;99.90;;;;;;6249096;22;20020;-82
2022/11/10 07:14:50;;;;;;;23.05;5.53;;;9.90;99.90;;;;;;6248939;22;20439;-82
2022/11/10 07:17:15;;;;;;;22.35;5.68;;;9.90;99.90;;;;;;6276062;22;20022;-82
2022/11/10 07:19:41;;;;;;;21.33;5.63;;;9.90;99.90;;;;;;6247815;22;20019;-83
2022/11/10 07:22:07;;;;;;;19.25;5.03;;;9.90;99.90;;;;;;6247729;22;20355;-83
2022/11/10 07:24:33;;;;;;;23.60;5.80;;;9.90;99.90;;;;;;6276812;22;20339;-83
2022/11/10 07:26:58;;;;;;;19.80;5.40;;;9.90;99.90;;;;;;6248987;22;20482;-82
2022/11/10 07:29:24;;;;;;;22.67;5.78;;;9.90;99.90;;;;;;6248771;22;20015;-83
2022/11/10 07:31:51;;;;;;;21.27;5.57;;;9.90;99.90;;;;;;6249423;22;20012;-83
2022/11/10 07:34:17;;;;;;;23.75;5.55;;;10.00;99.90;;;;;;6248049;22;20011;-83
2022/11/10 07:36:42;;;;;;;24.67;5.75;;;10.00;99.90;;;;;;6276912;22;20047;-83
2022/11/10 07:39:10;;;;;;;22.63;6.05;;;10.00;99.90;;;;;;6248997;22;20043;-82
2022/11/10 07:41:38;;;;;;;26.80;6.40;;;10.00;99.90;;;;;;6248633;22;20023;-81
2022/11/10 07:44:06;;;;;;;26.15;6.07;;;10.00;99.90;;;;;;6248719;22;20078;-82
2022/11/10 07:46:32;;;;;;;21.30;5.50;;;10.00;99.90;;;;;;6248909;22;20470;-81
2022/11/10 07:48:57;;;;;;;20.73;5.82;;;10.00;99.90;;;;;;6275610;22;20019;-81
2022/11/10 07:51:23;;;;;;;22.70;6.00;;;10.00;99.90;;;;;;6249165;22;20124;-83
2022/11/10 07:53:48;;;;;;;22.65;6.35;;;10.00;99.90;;;;;;6248852;22;20014;-83
2022/11/10 07:56:14;;;;;;;28.35;7.75;;;10.00;99.90;;;;;;6248998;22;20015;-83
2022/11/10 07:58:40;;;;;;;27.95;8.55;;;10.00;99.90;;;;;;6276541;22;20012;-82
2022/11/10 08:01:05;;;;;;;24.30;8.10;;;10.10;99.90;;;;;;6276566;22;20462;-83
2022/11/10 08:03:31;;;;;;;25.60;6.40;;;10.00;99.90;;;;;;6275306;22;20019;-83
2022/11/10 08:05:57;;;;;;;24.60;6.70;;;10.10;99.90;;;;;;6248733;22;20479;-82
2022/11/10 08:08:23;;;;;;;18.02;5.72;;;10.10;99.90;;;;;;6248723;22;20325;-83
2022/11/10 08:10:49;;;;;;;23.40;7.00;;;10.10;99.90;;;;;;6274892;22;20020;-83
2022/11/10 08:13:14;;;;;;;23.80;6.70;;;10.10;99.90;;;;;;6249238;22;20159;-83
2022/11/10 08:15:40;;;;;;;22.02;6.65;;;10.10;99.90;;;;;;6276035;22;20091;-82
2022/11/10 08:18:26;;;;;;;30.02;7.45;;;10.10;99.90;;;;;;6247940;22;20015;-83
2022/11/10 08:20:52;;;;;;;20.13;6.35;;;10.10;99.90;;;;;;6275319;22;20347;-85
2022/11/10 08:23:18;;;;;;;25.52;7.43;;;10.10;99.90;;;;;;6248395;22;20039;-84
2022/11/10 08:25:45;;;;;;;22.52;6.97;;;10.10;99.90;;;;;;6249260;22;20019;-85
2022/11/10 08:28:14;;;;;;;30.52;7.18;;;10.20;99.90;;;;;;6276747;22;20011;-84
2022/11/10 08:30:42;;;;;;;30.05;7.20;;;10.20;99.90;;;;;;6248237;22;20474;-83
2022/11/10 08:33:09;;;;;;;20.27;7.00;;;10.20;99.90;;;;;;6275776;22;20020;-83
2022/11/10 08:35:40;;;;;;;21.58;6.30;;;10.30;99.90;;;;;;6248403;22;20027;-84
2022/11/10 08:38:14;;;;;;;28.33;7.68;;;10.30;99.90;;;;;;6275614;22;20019;-83
2022/11/10 08:40:40;;;;;;;21.80;5.90;;;10.40;99.90;;;;;;6275433;22;20435;-84
2022/11/10 08:43:07;;;;;;;24.67;6.53;;;10.40;99.90;;;;;;6247435;22;20443;-84
2022/11/10 08:45:37;;;;;;;20.98;6.53;;;10.50;99.90;;;;;;6247914;22;20134;-84
2022/11/10 08:48:05;;;;;;;32.17;7.43;;;10.60;99.90;;;;;;6276049;22;20141;-84
2022/11/10 08:50:31;;;;;;;26.60;7.13;;;10.60;99.90;;;;;;6249600;22;20084;-84
2022/11/10 08:53:01;;;;;;;25.52;7.43;;;10.60;99.90;;;;;;6278031;22;20015;-83
2022/11/10 08:55:26;;;;;;;23.48;6.55;;;10.70;99.90;;;;;;6279548;22;20063;-84
2022/11/10 08:57:56;;;;;;;34.05;9.45;;;10.70;99.90;;;;;;6251767;22;20485;-83
2022/11/10 09:00:22;;;;;;;25.17;7.95;;;10.70;99.90;;;;;;6251945;22;20107;-83
2022/11/10 09:02:47;;;;;;;28.00;10.70;;;10.70;99.90;;;;;;6251597;22;20047;-84
2022/11/10 09:05:16;;;;;;;25.13;8.93;;;10.80;99.90;;;;;;6252016;22;20106;-83
2022/11/10 09:07:44;;;;;;;30.98;9.75;;;10.80;99.90;;;;;;6252038;22;20332;-83
2022/11/10 09:10:10;;;;;;;35.45;11.13;;;10.80;99.90;;;;;;6278863;22;20090;-83
2022/11/10 09:12:36;;;;;;;25.25;7.20;;;10.90;99.90;;;;;;6251413;22;20020;-83
2022/11/10 09:15:02;;;;;;;26.17;6.72;;;10.90;99.90;;;;;;6251049;22;20073;-83
2022/11/10 09:17:28;;;;;;;30.88;6.85;;;11.00;99.90;;;;;;6279418;22;20042;-83
2022/11/10 09:19:53;;;;;;;30.98;6.97;;;11.00;99.90;;;;;;6278476;22;20444;-84
2022/11/10 09:22:22;;;;;;;29.23;6.57;;;11.00;99.90;;;;;;6279509;22;20027;-83
2022/11/10 09:24:47;;;;;;;23.73;7.30;;;11.10;99.90;;;;;;6252027;22;20011;-83
2022/11/10 09:27:13;;;;;;;25.02;6.05;;;11.20;99.90;;;;;;6278192;22;20051;-82
2022/11/10 09:29:39;;;;;;;28.52;7.70;;;11.20;99.90;;;;;;6251040;22;20019;-83
2022/11/10 09:32:05;;;;;;;21.73;5.97;;;11.30;99.90;;;;;;6250489;22;20416;-84
2022/11/10 09:34:30;;;;;;;26.98;6.72;;;11.30;99.90;;;;;;6278671;22;20016;-82
2022/11/10 09:36:56;;;;;;;27.65;6.35;;;11.40;99.90;;;;;;6278585;22;20094;-83
2022/11/10 09:39:22;;;;;;;38.05;7.25;;;11.50;99.90;;;;;;6279003;22;20020;-81
2022/11/10 09:41:47;;;;;;;20.85;5.90;;;11.50;99.90;;;;;;6250773;22;20099;-83
2022/11/10 09:44:37;;;;;;;27.05;6.60;;;11.50;99.90;;;;;;6278440;22;20051;-81
2022/11/10 09:47:11;;;;;;;24.40;5.82;;;11.60;99.90;;;;;;6251159;22;20016;-82
2022/11/10 09:49:48;;;;;;;24.27;5.53;;;11.60;99.90;;;;;;6251588;22;20024;-82
2022/11/10 09:52:16;;;;;;;20.42;5.57;;;11.70;99.90;;;;;;6279062;22;20011;-82
2022/11/10 09:55:01;;;;;;;20.40;5.80;;;11.80;99.90;;;;;;6251141;22;20047;-83
2022/11/10 09:57:28;;;;;;;27.67;5.65;;;11.80;99.90;;;;;;6278963;22;20047;-83
2022/11/10 09:59:54;;;;;;;27.58;5.40;;;11.90;99.90;;;;;;6279158;22;20074;-83
2022/11/10 10:02:36;;;;;;;25.52;5.40;;;11.90;99.90;;;;;;6249835;22;20026;-83
2022/11/10 10:05:33;;;;;;;27.67;7.07;;;11.90;99.90;;;;;;6248972;22;20066;-83
2022/11/10 10:08:12;;;;;;;21.02;5.28;;;12.00;99.90;;;;;;6237043;22;20721;-83
2022/11/10 10:11:14;;;;;;;26.55;5.70;;;12.00;99.90;;;;;;6250645;22;20051;-82
2022/11/10 10:13:57;;;;;;;26.45;6.68;;;12.10;99.90;;;;;;6249877;22;20024;-82
2022/11/10 10:17:04;;;;;;;28.80;7.40;;;12.10;99.90;;;;;;6249990;22;20091;-82
2022/11/10 10:19:30;;;;;;;32.08;9.43;;;12.20;99.90;;;;;;6177043;23;20075;-82
2022/11/10 10:21:59;;;;;;;31.10;8.80;;;12.20;99.90;;;;;;6230004;22;20016;-82
2022/11/10 10:24:31;;;;;;;29.02;8.35;;;12.30;99.90;;;;;;6249666;22;20015;-82
2022/11/10 10:26:59;;;;;;;26.65;7.78;;;12.30;99.90;;;;;;6250447;22;20387;-82
2022/11/10 10:29:31;;;;;;;30.52;8.93;;;12.40;99.90;;;;;;6249964;22;20043;-83
2022/11/10 10:31:59;;;;;;;34.05;9.00;;;12.40;99.90;;;;;;6249639;22;20020;-84
2022/11/10 10:34:30;;;;;;;28.52;7.72;;;12.50;99.90;;;;;;6250381;22;20431;-84
2022/11/10 10:36:56;;;;;;;22.98;7.68;;;12.60;99.90;;;;;;6249308;22;20321;-83
2022/11/10 10:39:29;;;;;;;30.27;7.97;;;12.60;99.90;;;;;;6277353;22;20014;-84
2022/11/10 10:41:55;;;;;;;23.95;7.18;;;12.60;99.90;;;;;;6250161;22;20339;-82
2022/11/10 10:44:21;;;;;;;21.77;7.03;;;12.70;99.90;;;;;;6249971;22;20023;-84
2022/11/10 10:46:55;;;;;;;25.33;6.57;;;12.70;99.90;;;;;;6249674;22;20019;-83
2022/11/10 10:49:35;;;;;;;24.30;6.03;;;12.80;99.90;;;;;;6251500;22;20008;-83
2022/11/10 10:52:12;;;;;;;23.15;5.18;;;12.80;99.90;;;;;;6249424;22;20043;-83
2022/11/10 10:54:38;;;;;;;25.90;5.18;;;12.90;99.90;;;;;;6249664;22;20098;-81
2022/11/10 10:57:27;;;;;;;22.23;5.40;;;13.00;99.90;;;;;;6277585;22;20023;-84
2022/11/10 11:00:14;;;;;;;21.77;4.50;;;13.00;99.90;;;;;;6276668;22;20011;-83
2022/11/10 11:02:39;;;;;;;23.63;4.75;;;13.10;99.90;;;;;;6250116;22;20435;-83
2022/11/10 11:05:17;;;;;;;23.73;4.97;;;13.10;99.90;;;;;;6249158;22;20065;-82
2022/11/10 11:08:01;;;;;;;18.15;4.68;;;13.20;99.90;;;;;;6277034;22;20016;-83
2022/11/10 11:10:33;;;;;;;24.38;4.50;;;13.20;99.90;;;;;;6250269;22;20011;-84
2022/11/10 11:13:21;;;;;;;24.33;4.57;;;13.20;99.90;;;;;;6276562;22;20007;-83
2022/11/10 11:15:59;;;;;;;23.98;4.13;;;13.30;99.90;;;;;;6249994;22;20080;-84
2022/11/10 11:18:28;;;;;;;18.98;3.72;;;13.30;99.90;;;;;;6249928;22;20375;-84
2022/11/10 11:21:01;;;;;;;20.73;4.55;;;13.30;99.90;;;;;;6276421;22;20099;-83
2022/11/10 11:23:47;;;;;;;21.33;3.90;;;13.30;99.90;;;;;;6249901;22;20019;-84
2022/11/10 11:26:58;;;;;;;24.20;4.10;;;13.40;99.90;;;;;;6249320;22;20348;-84
2022/11/10 11:29:42;;;;;;;22.85;4.20;;;13.30;99.90;;;;;;6249616;22;20008;-87
2022/11/10 11:32:30;;;;;;;21.42;4.03;;;13.40;99.90;;;;;;6249677;22;20019;-85
2022/11/10 11:35:27;;;;;;;17.92;4.03;;;13.40;99.90;;;;;;6276449;22;20039;-84
2022/11/10 11:38:13;;;;;;;22.42;4.35;;;13.40;99.90;;;;;;6249248;22;20016;-84
2022/11/10 11:41:10;;;;;;;21.92;4.32;;;13.40;99.90;;;;;;6249100;22;20015;-83
2022/11/10 11:44:02;;;;;;;30.95;4.45;;;13.50;99.90;;;;;;6249891;22;20019;-84
2022/11/10 11:46:39;;;;;;;21.80;4.50;;;13.50;99.90;;;;;;6246652;22;20020;-83
2022/11/10 11:49:30;;;;;;;23.65;3.85;;;13.50;99.90;;;;;;6248860;22;20340;-83
2022/11/10 11:52:33;;;;;;;21.17;4.10;;;13.50;99.90;;;;;;6275970;22;20390;-83
2022/11/10 11:55:24;;;;;;;21.67;4.53;;;13.60;99.90;;;;;;6224558;22;20012;-83
2022/11/10 11:58:08;;;;;;;21.27;3.88;;;13.50;99.90;;;;;;6275959;22;20018;-83
2022/11/10 12:00:47;;;;;;;23.33;4.10;;;13.60;99.90;;;;;;6276335;22;20020;-83
2022/11/10 12:03:24;;;;;;;20.20;4.22;;;13.60;99.90;;;;;;6249049;22;20012;-81
2022/11/10 12:06:03;;;;;;;16.50;3.55;;;13.60;99.90;;;;;;6275936;22;20038;-82
2022/11/10 12:08:31;;;;;;;24.02;3.63;;;13.60;99.90;;;;;;6275304;22;20012;-82
2022/11/10 12:11:16;;;;;;;18.83;3.50;;;13.60;99.90;;;;;;6275433;22;20026;-82
2022/11/10 12:14:25;;;;;;;18.75;3.28;;;13.70;99.90;;;;;;6276266;22;20015;-82
2022/11/10 12:17:15;;;;;;;18.80;3.20;;;13.70;99.90;;;;;;6250910;22;20015;-84
2022/11/10 12:20:08;;;;;;;20.80;3.33;;;13.70;99.90;;;;;;6290617;22;20015;-82
2022/11/10 12:25:40;;;;;;;20.60;4.05;;;13.70;99.90;;;;;;6243701;22;20024;-82
2022/11/10 12:28:31;;;;;;;26.67;4.50;;;13.60;99.90;;;;;;6245172;23;20039;-82
2022/11/10 12:31:01;;;;;;;18.92;3.45;;;13.70;99.90;;;;;;6243650;23;20020;-83
2022/11/10 12:33:52;;;;;;;23.73;3.42;;;13.70;99.90;;;;;;6249177;22;20011;-82
2022/11/10 12:36:19;;;;;;;20.27;3.45;;;13.70;99.90;;;;;;6275628;22;20051;-81
2022/11/10 12:39:16;;;;;;;22.75;3.95;;;13.70;99.90;;;;;;6275107;22;20016;-82
2022/11/10 12:41:49;;;;;;;18.92;3.25;;;13.70;99.90;;;;;;6248547;22;20016;-81
2022/11/10 12:44:36;;;;;;;18.10;2.55;;;13.70;99.90;;;;;;6248066;22;20447;-81
2022/11/10 12:47:05;;;;;;;16.13;2.90;;;13.70;99.90;;;;;;6275846;22;20095;-82
2022/11/10 12:49:43;;;;;;;17.40;3.15;;;13.70;99.90;;;;;;6249374;22;20015;-82
2022/11/10 12:52:12;;;;;;;16.80;2.78;;;13.70;99.90;;;;;;6248061;22;20103;-83
2022/11/10 12:54:41;;;;;;;18.52;3.05;;;13.70;99.90;;;;;;6248693;22;20440;-82
2022/11/10 12:57:12;;;;;;;25.17;3.72;;;13.80;99.90;;;;;;6247801;22;20008;-83
2022/11/10 12:59:40;;;;;;;17.50;3.42;;;13.80;99.90;;;;;;6248569;22;20495;-83
2022/11/10 13:02:18;;;;;;;16.67;2.85;;;13.80;99.90;;;;;;6248365;22;20435;-83
2022/11/10 13:04:44;;;;;;;17.27;2.63;;;13.80;99.90;;;;;;6248018;22;20016;-83
2022/11/10 13:07:11;;;;;;;20.05;2.92;;;13.80;99.90;;;;;;6248491;22;20019;-82
2022/11/10 13:09:41;;;;;;;25.65;3.83;;;13.80;99.90;;;;;;6275499;22;20470;-83
2022/11/10 13:12:09;;;;;;;19.58;2.90;;;13.80;99.90;;;;;;6275237;22;20022;-83
2022/11/10 13:14:37;;;;;;;21.02;3.13;;;13.80;99.90;;;;;;6248942;22;20016;-81
2022/11/10 13:17:03;;;;;;;19.85;2.80;;;13.90;99.90;;;;;;6273505;22;20102;-81